This is the latest recevied weather packets stored in our database for station/object WW5JC. If no packets are shown the sender has not sent any weather packets the latest 10 day(s).
| Time | Temp. | Humidity | Pressure | Rain* | Wind** | Luminosity | Snow |
|---|---|---|---|---|---|---|---|
| 1788564599 | 35.56° C | 44% | 1013.6 hPa | 0 mm | - | 76 W/m² | - |
| 1788564296 | 36.11° C | 44% | 1013.5 hPa | 0 mm | - | 99 W/m² | - |
| 1788563993 | 35.56° C | 44% | 1013.4 hPa | 0 mm | - | 104 W/m² | - |
| 1788563688 | 35° C | 46% | 1013.7 hPa | 0 mm | - | 110 W/m² | - |
| 1788563383 | 35.56° C | 46% | 1013.3 hPa | 0 mm | - | 40 W/m² | - |
| 1788563081 | 36.11° C | 44% | 1013.7 hPa | 0 mm | - | 57 W/m² | - |
| 1788562777 | 36.11° C | 45% | 1013.5 hPa | 0 mm | - | 146 W/m² | - |
| 1788562474 | 36.11° C | 45% | 1013.5 hPa | 0 mm | - | 158 W/m² | - |
| 1788562168 | 36.11° C | 45% | 1013.6 hPa | 0 mm | - | 154 W/m² | - |
| 1788561865 | 35.56° C | 45% | 1013.5 hPa | 0 mm | - | 183 W/m² | - |
| 1788561564 | 35.56° C | 46% | 1013.7 hPa | 0 mm | - | 197 W/m² | - |
| 1788561263 | 36.11° C | 46% | 1013.6 hPa | 0 mm | - | 104 W/m² | - |
| 1788560960 | 36.11° C | 45% | 1013.6 hPa | 0 mm | - | 230 W/m² | - |
| 1788560654 | 36.11° C | 45% | 1013.6 hPa | 0 mm | - | 244 W/m² | - |
| 1788560355 | 36.11° C | 46% | 1013.8 hPa | 0 mm | - | 259 W/m² | - |
| 1788560049 | 35° C | 47% | 1013.6 hPa | 0 mm | - | 90 W/m² | - |
| 1788559744 | 35.56° C | 47% | 1013.8 hPa | 0 mm | - | 55 W/m² | - |
| 1788559438 | 36.67° C | 46% | 1013.8 hPa | 0 mm | - | 63 W/m² | - |
| 1788559134 | 36.67° C | 45% | 1013.8 hPa | 0 mm | - | 316 W/m² | - |
| 1788558829 | 36.67° C | 45% | 1013.7 hPa | 0 mm | - | 344 W/m² | - |
| 1788558525 | 35.56° C | 45% | 1013.9 hPa | 0 mm | - | 367 W/m² | - |
| 1788558220 | 35° C | 48% | 1013.9 hPa | 0 mm | - | 80 W/m² | - |
| 1788557919 | 35.56° C | 47% | 1014.1 hPa | 0 mm | - | 105 W/m² | - |
| 1788557613 | 35.56° C | 47% | 1014 hPa | 0 mm | - | 222 W/m² | - |
| 1788557309 | 36.11° C | 46% | 1014.1 hPa | 0 mm | - | 94 W/m² | - |
* Rain latest hour (hover to see other rain measurements)
** Current wind speed in m/s (hover to see current wind gust speed)